createdAt,value
2022-09-09T00:00:26.776Z,25.45
2022-09-09T00:02:29.866Z,25.47
2022-09-09T00:04:35.839Z,25.46
2022-09-09T00:06:56.632Z,25.47
2022-09-09T00:09:18.674Z,25.51
2022-09-09T00:11:31.576Z,25.52
2022-09-09T00:13:37.822Z,25.55
2022-09-09T00:15:47.804Z,25.55
2022-09-09T00:18:03.103Z,25.56
2022-09-09T00:20:28.277Z,25.52
2022-09-09T00:22:33.354Z,25.54
2022-09-09T00:24:46.719Z,25.54
2022-09-09T00:26:54.525Z,25.62
2022-09-09T00:29:04.886Z,25.62
2022-09-09T00:31:26.050Z,25.59
2022-09-09T00:33:28.767Z,25.62
2022-09-09T00:35:35.810Z,25.57
2022-09-09T00:37:41.303Z,25.57
2022-09-09T00:39:48.584Z,25.52
2022-09-09T00:42:10.533Z,25.49
2022-09-09T00:44:36.292Z,25.29
2022-09-09T00:47:16.410Z,25.16
2022-09-09T00:49:33.451Z,25.07
2022-09-09T00:52:05.878Z,25.06
2022-09-09T00:54:41.856Z,24.99
2022-09-09T00:57:05.007Z,25.05
2022-09-09T00:59:07.114Z,24.95
2022-09-09T01:01:14.577Z,24.87
2022-09-09T01:03:38.600Z,24.72
2022-09-09T01:06:07.879Z,24.72
2022-09-09T01:08:34.736Z,24.51
2022-09-09T01:10:50.503Z,24.53
2022-09-09T01:12:57.077Z,24.48
2022-09-09T01:15:23.200Z,24.34
2022-09-09T01:17:33.820Z,24.40
2022-09-09T01:19:52.830Z,24.31
2022-09-09T01:22:24.713Z,24.26
2022-09-09T01:24:36.966Z,24.30
2022-09-09T01:27:10.564Z,24.39
2022-09-09T01:29:16.713Z,24.44
2022-09-09T01:31:33.718Z,24.44
2022-09-09T01:33:36.002Z,24.53
2022-09-09T01:35:55.695Z,24.56
2022-09-09T01:38:00.861Z,24.58
2022-09-09T01:40:04.086Z,24.57
2022-09-09T01:42:10.564Z,24.60
2022-09-09T01:44:14.041Z,24.62
2022-09-09T01:46:23.600Z,24.66
2022-09-09T01:48:27.557Z,24.67
2022-09-09T01:50:38.491Z,24.48
2022-09-09T01:52:43.033Z,24.41
2022-09-09T01:54:48.510Z,24.35
2022-09-09T01:57:13.401Z,24.22
2022-09-09T01:59:26.292Z,24.06
2022-09-09T02:01:35.238Z,24.06
2022-09-09T02:03:37.669Z,24.04
2022-09-09T02:06:04.779Z,23.87
2022-09-09T02:08:14.709Z,23.98
2022-09-09T02:10:35.503Z,23.99
2022-09-09T02:12:52.457Z,24.01
2022-09-09T02:15:05.095Z,23.84
2022-09-09T02:17:24.561Z,23.72
2022-09-09T02:19:47.507Z,23.67
2022-09-09T02:22:02.332Z,23.72
2022-09-09T02:24:11.499Z,23.66
2022-09-09T02:26:24.521Z,23.66
2022-09-09T02:28:36.407Z,23.72
2022-09-09T02:30:40.955Z,23.76
2022-09-09T02:32:46.018Z,23.81
2022-09-09T02:34:55.281Z,23.88
2022-09-09T02:37:00.995Z,23.79
2022-09-09T02:39:05.801Z,23.72
2022-09-09T02:41:10.410Z,23.64
2022-09-09T02:43:17.548Z,23.71
2022-09-09T02:45:26.194Z,23.64
2022-09-09T02:47:40.069Z,23.63
2022-09-09T02:50:14.245Z,23.63
2022-09-09T02:52:25.096Z,23.64
2022-09-09T02:54:33.098Z,23.58
2022-09-09T02:56:45.229Z,23.51
2022-09-09T02:58:48.589Z,23.47
2022-09-09T03:00:52.461Z,23.45
2022-09-09T03:02:55.739Z,23.38
2022-09-09T03:04:58.050Z,23.17
2022-09-09T03:07:00.757Z,23.18
2022-09-09T03:09:03.953Z,23.10
2022-09-09T03:11:06.035Z,23.12
2022-09-09T03:13:12.402Z,23.10
2022-09-09T03:15:16.602Z,23.10
2022-09-09T03:17:19.243Z,23.11
2022-09-09T03:19:26.777Z,23.11
2022-09-09T03:21:28.872Z,23.08
2022-09-09T03:23:31.029Z,23.01
2022-09-09T03:25:36.845Z,22.98
2022-09-09T03:27:38.755Z,22.96
2022-09-09T03:29:40.631Z,22.97
2022-09-09T03:31:47.452Z,23.00
2022-09-09T03:33:54.871Z,22.94
2022-09-09T03:35:58.616Z,23.01
2022-09-09T03:38:01.837Z,23.01
2022-09-09T03:40:12.977Z,22.98
2022-09-09T03:42:19.899Z,22.97
2022-09-09T03:44:25.396Z,22.97
2022-09-09T03:46:27.940Z,23.00
2022-09-09T03:48:30.852Z,23.00
2022-09-09T03:50:34.408Z,22.97
2022-09-09T03:52:41.892Z,22.99
2022-09-09T03:54:49.581Z,23.05
2022-09-09T03:56:51.820Z,23.15
2022-09-09T03:58:54.581Z,23.21
2022-09-09T04:01:03.620Z,23.26
2022-09-09T04:03:06.879Z,23.26
2022-09-09T04:05:09.376Z,23.29
2022-09-09T04:07:13.067Z,23.29
2022-09-09T04:09:16.506Z,23.27
2022-09-09T04:11:19.174Z,23.32
2022-09-09T04:13:23.905Z,23.35
2022-09-09T04:15:26.013Z,23.31
2022-09-09T04:17:28.005Z,23.31
2022-09-09T04:19:30.042Z,23.28
2022-09-09T04:21:32.689Z,23.25
2022-09-09T04:23:38.119Z,23.30
2022-09-09T04:25:48.963Z,23.28
2022-09-09T04:27:58.379Z,23.26
2022-09-09T04:30:03.483Z,23.22
2022-09-09T04:32:07.855Z,23.23
2022-09-09T04:34:14.874Z,23.20
2022-09-09T04:36:17.402Z,23.14
2022-09-09T04:38:20.432Z,23.17
2022-09-09T04:40:23.510Z,23.04
2022-09-09T04:42:29.462Z,23.06
2022-09-09T04:44:31.786Z,22.97
2022-09-09T04:46:35.583Z,23.00
2022-09-09T04:48:38.257Z,22.97
2022-09-09T04:50:42.310Z,22.83
2022-09-09T04:52:47.294Z,22.91
2022-09-09T04:54:49.561Z,22.94
2022-09-09T04:56:52.168Z,22.92
2022-09-09T04:58:55.532Z,22.94
2022-09-09T05:01:05.809Z,22.86
2022-09-09T05:03:09.459Z,22.93
2022-09-09T05:05:12.419Z,22.97
2022-09-09T05:07:15.864Z,22.88
2022-09-09T05:09:18.335Z,22.92
2022-09-09T05:11:29.890Z,22.89
2022-09-09T05:13:52.828Z,22.96
2022-09-09T05:15:56.393Z,22.96
2022-09-09T05:18:00.877Z,22.94
2022-09-09T05:20:09.535Z,23.00
2022-09-09T05:22:13.184Z,22.98
2022-09-09T05:24:24.411Z,22.95
2022-09-09T05:26:30.587Z,22.98
2022-09-09T05:28:36.534Z,23.02
2022-09-09T05:30:39.402Z,23.07
2022-09-09T05:32:44.719Z,23.10
2022-09-09T05:34:48.398Z,23.11
2022-09-09T05:36:51.254Z,23.08
2022-09-09T05:38:56.233Z,23.06
2022-09-09T05:41:01.257Z,23.16
2022-09-09T05:43:04.124Z,23.17
2022-09-09T05:45:08.967Z,23.16
2022-09-09T05:47:11.373Z,23.15
2022-09-09T05:49:13.821Z,23.19
2022-09-09T05:51:25.755Z,23.18
2022-09-09T05:53:33.374Z,23.22
2022-09-09T05:55:35.998Z,23.21
2022-09-09T05:57:40.503Z,23.20
2022-09-09T05:59:43.673Z,23.23
2022-09-09T06:01:49.485Z,23.19
2022-09-09T06:04:06.664Z,23.25
2022-09-09T06:06:15.043Z,23.21
2022-09-09T06:08:17.724Z,23.22
2022-09-09T06:10:20.426Z,23.32
2022-09-09T06:12:22.657Z,23.39
2022-09-09T06:14:25.370Z,23.39
2022-09-09T06:16:31.052Z,23.35
2022-09-09T06:18:33.674Z,23.36
2022-09-09T06:20:39.271Z,23.42
2022-09-09T06:22:42.355Z,23.47
2022-09-09T06:24:46.127Z,23.54
2022-09-09T06:26:48.232Z,23.53
2022-09-09T06:28:59.148Z,23.58
2022-09-09T06:31:06.905Z,23.61
2022-09-09T06:33:10.423Z,23.63
2022-09-09T06:35:12.893Z,23.68
2022-09-09T06:37:15.374Z,23.83
2022-09-09T06:39:22.729Z,23.89
2022-09-09T06:41:28.132Z,24.01
2022-09-09T06:43:31.288Z,24.08
2022-09-09T06:45:37.810Z,24.09
2022-09-09T06:47:40.185Z,24.08
2022-09-09T06:49:45.490Z,24.12
2022-09-09T06:51:50.653Z,24.06
2022-09-09T06:53:55.664Z,24.00
2022-09-09T06:55:59.709Z,24.04
2022-09-09T06:58:02.948Z,24.07
2022-09-09T07:00:06.035Z,24.03
2022-09-09T07:02:09.626Z,24.09
2022-09-09T07:04:12.332Z,24.16
2022-09-09T07:06:18.714Z,24.15
2022-09-09T07:08:21.764Z,24.20
2022-09-09T07:10:26.965Z,24.25
2022-09-09T07:12:29.700Z,24.33
2022-09-09T07:14:37.313Z,24.31
2022-09-09T07:16:46.801Z,24.32
2022-09-09T07:18:51.727Z,24.37
2022-09-09T07:20:56.470Z,24.43
2022-09-09T07:23:00.357Z,24.38
2022-09-09T07:25:03.391Z,24.43
2022-09-09T07:27:08.201Z,24.48
2022-09-09T07:29:18.511Z,24.51
2022-09-09T07:31:31.777Z,24.51
2022-09-09T07:33:36.482Z,24.57
2022-09-09T07:35:39.255Z,24.59
2022-09-09T07:37:42.411Z,24.65
2022-09-09T07:39:45.217Z,24.66
2022-09-09T07:41:50.281Z,24.73
2022-09-09T07:43:55.675Z,24.78
2022-09-09T07:46:01.767Z,24.82
2022-09-09T07:48:05.061Z,24.87
2022-09-09T07:50:07.827Z,24.89
2022-09-09T07:52:10.165Z,24.90
2022-09-09T07:54:17.337Z,24.86
2022-09-09T07:56:23.686Z,24.94
2022-09-09T07:58:26.801Z,24.98
2022-09-09T08:00:29.757Z,25.04
2022-09-09T08:02:33.679Z,25.08
2022-09-09T08:04:36.758Z,25.15
2022-09-09T08:06:41.603Z,25.10
2022-09-09T08:08:46.352Z,25.18
2022-09-09T08:10:48.558Z,25.30
2022-09-09T08:13:07.959Z,25.53
2022-09-09T08:15:13.888Z,25.79
2022-09-09T08:17:16.253Z,25.97
2022-09-09T08:19:19.145Z,26.11
2022-09-09T08:21:25.134Z,26.25
2022-09-09T08:23:27.879Z,26.40
2022-09-09T08:25:30.181Z,26.48
2022-09-09T08:27:33.409Z,26.59
2022-09-09T08:29:35.790Z,26.75
2022-09-09T08:31:41.319Z,26.85
2022-09-09T08:33:46.645Z,26.93
2022-09-09T08:35:52.265Z,27.01
2022-09-09T08:37:56.638Z,27.13
2022-09-09T08:40:00.368Z,27.24
2022-09-09T08:42:06.124Z,27.34
2022-09-09T08:44:32.533Z,27.40
2022-09-09T08:46:49.681Z,27.42
2022-09-09T08:48:57.890Z,27.45
2022-09-09T08:51:03.246Z,27.47
2022-09-09T08:53:09.275Z,27.51
2022-09-09T08:55:37.915Z,27.53
2022-09-09T08:57:40.451Z,27.67
2022-09-09T08:59:42.745Z,27.76
2022-09-09T09:01:57.362Z,27.80
2022-09-09T09:04:24.176Z,27.92
2022-09-09T09:06:37.477Z,27.89
2022-09-09T09:09:05.918Z,27.89
2022-09-09T09:11:08.611Z,27.90
2022-09-09T09:13:23.636Z,27.85
2022-09-09T09:15:32.826Z,27.84
2022-09-09T09:17:38.698Z,27.76
2022-09-09T09:19:44.409Z,27.64
2022-09-09T09:22:11.464Z,27.51
2022-09-09T09:24:21.500Z,27.44
2022-09-09T09:26:31.856Z,27.46
2022-09-09T09:28:35.485Z,27.43
2022-09-09T09:31:02.686Z,27.41
2022-09-09T09:33:16.258Z,27.40
2022-09-09T09:35:18.782Z,27.42
2022-09-09T09:37:30.565Z,27.34
2022-09-09T09:42:21.606Z,27.27
2022-09-09T09:44:33.789Z,27.25
2022-09-09T09:46:42.236Z,27.21
2022-09-09T09:48:59.093Z,27.14
2022-09-09T09:51:16.723Z,27.07
2022-09-09T09:53:32.649Z,27.05
2022-09-09T09:55:36.705Z,27.08
2022-09-09T09:57:39.595Z,27.08
2022-09-09T09:59:46.883Z,27.07
2022-09-09T10:02:22.197Z,27.03
2022-09-09T10:04:30.685Z,27.07
2022-09-09T10:06:38.658Z,27.06
2022-09-09T10:08:48.320Z,27.04
2022-09-09T10:11:05.597Z,27.08
2022-09-09T10:13:20.286Z,27.00
2022-09-09T10:15:41.711Z,27.03
2022-09-09T10:18:17.462Z,27.05
2022-09-09T10:20:35.977Z,27.09
2022-09-09T10:22:45.166Z,27.14
2022-09-09T10:25:04.090Z,27.11
2022-09-09T10:27:31.413Z,27.03
2022-09-09T10:30:13.458Z,27.06
2022-09-09T10:32:57.229Z,27.09
2022-09-09T10:35:04.143Z,27.11
2022-09-09T10:37:24.678Z,27.03
2022-09-09T10:39:42.188Z,27.03
2022-09-09T10:41:45.060Z,27.03
2022-09-09T10:44:02.242Z,27.01
2022-09-09T10:46:16.465Z,27.03
2022-09-09T10:48:44.516Z,27.06
2022-09-09T10:51:18.962Z,27.08
2022-09-09T10:53:37.898Z,27.14
2022-09-09T10:55:46.422Z,27.20
2022-09-09T10:57:51.251Z,27.23
2022-09-09T11:00:01.079Z,27.19
2022-09-09T11:02:20.480Z,27.16
2022-09-09T11:04:26.980Z,27.22
2022-09-09T11:06:40.088Z,27.19
2022-09-09T11:08:43.380Z,27.18
2022-09-09T11:10:56.587Z,27.13
2022-09-09T11:13:07.121Z,27.10
2022-09-09T11:15:27.300Z,27.03
2022-09-09T11:17:45.635Z,27.00
2022-09-09T11:19:48.274Z,27.01
2022-09-09T11:21:52.380Z,27.00
2022-09-09T11:24:00.552Z,26.98
2022-09-09T11:26:06.081Z,26.95
2022-09-09T11:28:33.621Z,26.91
2022-09-09T11:31:12.695Z,26.92
2022-09-09T11:33:33.904Z,27.01
2022-09-09T11:36:07.422Z,26.98
2022-09-09T11:38:19.527Z,26.97
2022-09-09T11:40:31.967Z,26.98
2022-09-09T11:42:34.162Z,26.97
2022-09-09T11:46:43.704Z,26.91
2022-09-09T11:48:47.447Z,26.90
2022-09-09T11:51:02.030Z,26.83
2022-09-09T11:53:22.239Z,26.82
2022-09-09T11:55:35.922Z,26.78
2022-09-09T11:57:38.752Z,26.81
2022-09-09T11:59:53.491Z,26.81
2022-09-09T12:02:33.779Z,26.83
2022-09-09T12:04:45.805Z,26.90
2022-09-09T12:06:53.623Z,26.96
2022-09-09T12:09:16.935Z,26.97
2022-09-09T12:11:30.286Z,27.01
2022-09-09T12:13:35.425Z,26.99
2022-09-09T12:15:50.630Z,26.87
2022-09-09T12:17:57.175Z,26.90
2022-09-09T12:20:08.438Z,26.89
2022-09-09T12:22:18.629Z,26.96
2022-09-09T12:24:32.323Z,27.06
2022-09-09T12:26:45.845Z,27.10
2022-09-09T12:28:57.275Z,27.20
2022-09-09T12:31:19.250Z,27.26
2022-09-09T12:33:23.069Z,27.32
2022-09-09T12:35:30.170Z,27.30
2022-09-09T12:37:58.370Z,27.24
2022-09-09T12:40:04.412Z,27.29
2022-09-09T12:42:06.897Z,27.42
2022-09-09T12:44:12.070Z,27.51
2022-09-09T12:46:33.016Z,27.52
2022-09-09T12:48:40.082Z,27.56
2022-09-09T12:50:49.641Z,27.56
2022-09-09T12:52:54.916Z,27.60
2022-09-09T12:55:02.571Z,27.61
2022-09-09T12:57:13.460Z,27.59
2022-09-09T12:59:37.179Z,27.58
2022-09-09T13:01:39.358Z,27.47
2022-09-09T13:03:48.390Z,27.60
2022-09-09T13:05:51.061Z,27.69
2022-09-09T13:07:53.373Z,27.73
2022-09-09T13:09:55.169Z,27.73
2022-09-09T13:11:59.242Z,27.74
2022-09-09T13:14:01.600Z,27.79
2022-09-09T13:16:05.751Z,27.83
2022-09-09T13:18:14.176Z,27.80
2022-09-09T13:20:20.953Z,27.78
2022-09-09T13:22:41.701Z,27.74
2022-09-09T13:24:44.123Z,27.71
2022-09-09T13:26:57.477Z,27.67
2022-09-09T13:29:19.017Z,27.65
2022-09-09T13:31:37.595Z,27.62
2022-09-09T13:33:41.048Z,27.64
2022-09-09T13:35:54.144Z,27.59
2022-09-09T13:37:56.326Z,27.58
2022-09-09T13:39:58.982Z,27.56
2022-09-09T13:42:02.194Z,27.53
2022-09-09T13:44:05.570Z,27.48
2022-09-09T13:46:25.373Z,27.38
2022-09-09T13:48:27.375Z,27.35
2022-09-09T13:50:30.740Z,27.28
2022-09-09T13:52:33.056Z,27.27
2022-09-09T13:54:34.838Z,27.23
2022-09-09T13:56:38.202Z,27.05
2022-09-09T13:58:40.049Z,26.96
2022-09-09T14:00:41.840Z,26.77
2022-09-09T14:02:45.173Z,26.79
2022-09-09T14:04:46.913Z,26.81
2022-09-09T14:06:50.426Z,26.79
2022-09-09T14:08:53.111Z,26.80
2022-09-09T14:10:56.961Z,26.76
2022-09-09T14:12:58.772Z,26.75
2022-09-09T14:15:03.869Z,26.77
2022-09-09T14:17:08.006Z,26.81
2022-09-09T14:19:10.938Z,26.80
2022-09-09T14:21:13.348Z,26.80
2022-09-09T14:23:16.672Z,26.87
2022-09-09T14:25:18.428Z,26.88
2022-09-09T14:27:21.060Z,26.89
2022-09-09T14:29:22.976Z,26.93
2022-09-09T14:31:25.459Z,26.98
2022-09-09T14:33:27.657Z,27.05
2022-09-09T14:35:29.371Z,27.11
2022-09-09T14:37:32.244Z,27.11
2022-09-09T14:39:34.190Z,27.12
2022-09-09T14:41:35.991Z,27.14
2022-09-09T14:43:41.351Z,27.13
2022-09-09T14:45:44.460Z,27.17
2022-09-09T14:47:46.289Z,27.17
2022-09-09T14:49:51.017Z,27.22
2022-09-09T14:51:52.822Z,27.24
2022-09-09T14:54:00.338Z,27.28
2022-09-09T14:56:09.497Z,27.26
2022-09-09T14:58:11.658Z,27.28
2022-09-09T15:00:14.339Z,27.30
2022-09-09T15:02:16.099Z,27.30
2022-09-09T15:04:18.342Z,27.31
2022-09-09T15:06:21.491Z,27.31
2022-09-09T15:08:23.196Z,27.33
2022-09-09T15:10:25.487Z,27.34
2022-09-09T15:12:28.014Z,27.22
2022-09-09T15:14:29.691Z,27.17
2022-09-09T15:16:33.256Z,27.21
2022-09-09T15:18:37.332Z,27.20
2022-09-09T15:20:40.353Z,27.25
2022-09-09T15:22:42.537Z,27.28
2022-09-09T15:24:44.669Z,27.27
2022-09-09T15:26:46.774Z,27.26
2022-09-09T15:28:50.754Z,27.24
2022-09-09T15:30:54.137Z,27.26
2022-09-09T15:32:55.973Z,27.14
2022-09-09T15:34:57.850Z,27.13
2022-09-09T15:37:02.379Z,27.20
2022-09-09T15:39:07.259Z,27.20
2022-09-09T15:41:09.074Z,27.24
2022-09-09T15:43:11.858Z,27.26
2022-09-09T15:45:13.753Z,27.30
2022-09-09T15:47:16.204Z,27.32
2022-09-09T15:49:26.399Z,27.26
2022-09-09T15:51:42.370Z,27.32
2022-09-09T15:53:45.995Z,27.35
2022-09-09T15:55:47.748Z,27.33
2022-09-09T15:57:49.621Z,27.31
2022-09-09T15:59:51.747Z,27.22
2022-09-09T16:01:53.671Z,27.18
2022-09-09T16:03:55.545Z,27.15
2022-09-09T16:05:57.258Z,27.17
2022-09-09T16:07:59.372Z,27.16
2022-09-09T16:10:01.033Z,27.19
2022-09-09T16:12:07.456Z,27.18
2022-09-09T16:14:09.204Z,27.17
2022-09-09T16:16:13.405Z,27.17
2022-09-09T16:18:16.505Z,27.18
2022-09-09T16:20:19.971Z,27.15
2022-09-09T16:22:22.887Z,27.14
2022-09-09T16:24:25.036Z,27.12
2022-09-09T16:26:30.311Z,27.11
2022-09-09T16:28:34.790Z,27.11
2022-09-09T16:30:40.390Z,27.07
2022-09-09T16:32:42.483Z,27.05
2022-09-09T16:34:44.251Z,27.04
2022-09-09T16:36:47.423Z,26.95
2022-09-09T16:38:52.840Z,26.90
2022-09-09T16:41:01.227Z,26.85
2022-09-09T16:43:03.739Z,26.85
2022-09-09T16:45:06.548Z,26.82
2022-09-09T16:47:10.545Z,26.81
2022-09-09T16:49:15.734Z,26.80
2022-09-09T16:51:25.539Z,26.78
2022-09-09T16:53:27.997Z,26.75
2022-09-09T16:55:30.986Z,26.70
2022-09-09T16:57:32.872Z,26.69
2022-09-09T16:59:34.697Z,26.66
2022-09-09T17:01:39.096Z,26.62
2022-09-09T17:03:42.086Z,26.59
2022-09-09T17:05:45.704Z,26.56
2022-09-09T17:07:47.512Z,26.52
2022-09-09T17:09:49.963Z,26.49
2022-09-09T17:11:53.328Z,26.46
2022-09-09T17:13:55.927Z,26.44
2022-09-09T17:16:02.270Z,26.41
2022-09-09T17:18:04.698Z,26.37
2022-09-09T17:20:08.163Z,26.36
2022-09-09T17:22:17.879Z,26.35
2022-09-09T17:24:19.911Z,26.31
2022-09-09T17:26:23.682Z,26.28
2022-09-09T17:28:28.397Z,26.25
2022-09-09T17:30:31.473Z,26.25
2022-09-09T17:32:33.424Z,26.23
2022-09-09T17:34:35.784Z,26.22
2022-09-09T17:36:40.671Z,26.20
2022-09-09T17:38:45.870Z,26.17
2022-09-09T17:40:48.603Z,26.16
2022-09-09T17:42:50.381Z,26.13
2022-09-09T17:44:52.364Z,26.12
2022-09-09T17:46:55.578Z,26.08
2022-09-09T17:49:00.070Z,26.04
2022-09-09T17:51:01.824Z,26.03
2022-09-09T17:53:03.665Z,26.01
2022-09-09T17:55:06.287Z,26.01
2022-09-09T17:57:08.265Z,25.98
2022-09-09T17:59:12.132Z,25.96
2022-09-09T18:01:23.349Z,25.93
2022-09-09T18:03:25.798Z,25.94
2022-09-09T18:05:27.635Z,25.93
2022-09-09T18:07:31.424Z,25.91
2022-09-09T18:09:33.757Z,25.90
2022-09-09T18:11:42.808Z,25.85
2022-09-09T18:13:49.398Z,25.82
2022-09-09T18:15:51.230Z,25.83
2022-09-09T18:17:53.512Z,25.81
2022-09-09T18:19:55.241Z,25.80
2022-09-09T18:22:00.229Z,25.79
2022-09-09T18:24:06.908Z,25.77
2022-09-09T18:26:11.100Z,25.76
2022-09-09T18:28:13.671Z,25.74
2022-09-09T18:30:15.507Z,25.74
2022-09-09T18:32:20.030Z,25.73
2022-09-09T18:34:23.292Z,25.71
2022-09-09T18:36:37.376Z,25.64
2022-09-09T18:38:39.196Z,25.64
2022-09-09T18:40:41.102Z,25.66
2022-09-09T18:42:43.367Z,25.61
2022-09-09T18:44:45.086Z,25.60
2022-09-09T18:46:48.493Z,25.59
2022-09-09T18:48:50.949Z,25.57
2022-09-09T18:50:53.383Z,25.55
2022-09-09T18:52:55.085Z,25.53
2022-09-09T18:54:56.858Z,25.52
2022-09-09T18:57:02.824Z,25.48
2022-09-09T18:59:06.746Z,25.50
2022-09-09T19:01:12.608Z,25.44
2022-09-09T19:03:14.905Z,25.42
2022-09-09T19:05:16.674Z,25.41
2022-09-09T19:07:19.087Z,25.39
2022-09-09T19:09:20.849Z,25.37
2022-09-09T19:11:24.351Z,25.35
2022-09-09T19:13:27.212Z,25.33
2022-09-09T19:15:29.800Z,25.31
2022-09-09T19:17:32.463Z,25.28
2022-09-09T19:19:35.201Z,25.27
2022-09-09T19:21:38.796Z,25.25
2022-09-09T19:23:41.549Z,25.23
2022-09-09T19:25:43.920Z,25.21
2022-09-09T19:27:45.933Z,25.19
2022-09-09T19:29:48.340Z,25.17
2022-09-09T19:32:29.230Z,25.15
2022-09-09T19:34:14.488Z,25.12
2022-09-09T19:36:18.308Z,25.10
2022-09-09T19:38:20.072Z,25.07
2022-09-09T19:40:23.069Z,25.06
2022-09-09T19:42:25.618Z,25.05
2022-09-09T19:44:27.326Z,25.03
2022-09-09T19:46:31.046Z,25.05
2022-09-09T19:48:34.664Z,24.99
2022-09-09T19:50:37.074Z,24.99
2022-09-09T19:52:38.909Z,24.97
2022-09-09T19:54:40.752Z,24.92
2022-09-09T19:56:44.265Z,24.90
2022-09-09T19:58:47.688Z,24.70
2022-09-09T20:00:49.385Z,24.59
2022-09-09T20:03:15.346Z,24.56
2022-09-09T20:05:14.088Z,24.60
2022-09-09T20:07:16.016Z,24.66
2022-09-09T20:09:18.535Z,24.58
2022-09-09T20:11:20.597Z,24.57
2022-09-09T20:13:22.288Z,24.54
2022-09-09T20:15:24.518Z,24.44
2022-09-09T20:17:26.226Z,24.38
2022-09-09T20:19:28.134Z,24.36
2022-09-09T20:21:33.088Z,24.33
2022-09-09T20:23:35.256Z,24.41
2022-09-09T20:25:38.078Z,24.42
2022-09-09T20:27:39.815Z,24.46
2022-09-09T20:29:41.562Z,24.50
2022-09-09T20:31:44.851Z,24.49
2022-09-09T20:33:47.741Z,24.48
2022-09-09T20:35:49.692Z,24.45
2022-09-09T20:37:51.413Z,24.46
2022-09-09T20:39:53.733Z,24.46
2022-09-09T20:41:55.587Z,24.46
2022-09-09T20:43:59.603Z,24.44
2022-09-09T20:46:04.986Z,24.45
2022-09-09T20:48:07.349Z,24.33
2022-09-09T20:50:09.735Z,24.25
2022-09-09T20:52:12.351Z,24.24
2022-09-09T20:54:17.287Z,24.16
2022-09-09T20:56:20.303Z,24.09
2022-09-09T20:58:21.994Z,24.01
2022-09-09T21:00:24.088Z,24.01
2022-09-09T21:02:26.411Z,24.02
2022-09-09T21:04:29.269Z,24.07
2022-09-09T21:06:31.193Z,24.10
2022-09-09T21:08:34.303Z,24.12
2022-09-09T21:10:36.425Z,24.12
2022-09-09T21:12:39.771Z,24.12
2022-09-09T21:14:41.773Z,24.12
2022-09-09T21:16:43.857Z,24.15
2022-09-09T21:18:46.128Z,24.10
2022-09-09T21:20:48.932Z,24.06
2022-09-09T21:22:51.068Z,24.01
2022-09-09T21:24:53.585Z,24.01
2022-09-09T21:26:56.730Z,24.01
2022-09-09T21:28:58.798Z,24.05
2022-09-09T21:31:00.877Z,24.00
2022-09-09T21:33:04.277Z,23.96
2022-09-09T21:35:07.470Z,23.95
2022-09-09T21:37:09.741Z,23.90
2022-09-09T21:39:11.755Z,23.85
2022-09-09T21:41:15.592Z,23.76
2022-09-09T21:43:19.442Z,23.72
2022-09-09T21:45:21.465Z,23.65
2022-09-09T21:47:23.546Z,23.56
2022-09-09T21:49:27.711Z,23.52
2022-09-09T21:51:30.412Z,23.51
2022-09-09T21:53:33.514Z,23.42
2022-09-09T21:55:41.849Z,23.26
2022-09-09T21:57:43.992Z,23.32
2022-09-09T21:59:46.301Z,23.36
2022-09-09T22:01:50.372Z,23.38
2022-09-09T22:03:52.511Z,23.43
2022-09-09T22:05:54.712Z,23.46
2022-09-09T22:07:56.877Z,23.48
2022-09-09T22:09:59.364Z,23.51
2022-09-09T22:12:01.630Z,23.54
2022-09-09T22:14:03.672Z,23.55
2022-09-09T22:16:08.939Z,23.54
2022-09-09T22:18:11.791Z,23.54
2022-09-09T22:20:13.901Z,23.53
2022-09-09T22:22:16.442Z,23.53
2022-09-09T22:24:18.414Z,23.52
2022-09-09T22:26:20.696Z,23.51
2022-09-09T22:28:23.539Z,23.51
2022-09-09T22:30:25.925Z,23.49
2022-09-09T22:32:31.778Z,23.48
2022-09-09T22:34:39.980Z,23.41
2022-09-09T22:36:42.288Z,23.42
2022-09-09T22:38:44.443Z,23.40
2022-09-09T22:40:48.057Z,23.38
2022-09-09T22:42:53.344Z,23.35
2022-09-09T22:44:56.036Z,23.34
2022-09-09T22:46:58.113Z,23.35
2022-09-09T22:49:02.322Z,23.29
2022-09-09T22:51:13.408Z,23.22
2022-09-09T22:53:17.783Z,23.26
2022-09-09T22:55:20.122Z,23.26
2022-09-09T22:57:22.326Z,23.25
2022-09-09T22:59:24.286Z,23.20
2022-09-09T23:01:28.119Z,23.16
2022-09-09T23:03:33.273Z,23.14
2022-09-09T23:05:38.685Z,23.16
2022-09-09T23:07:40.821Z,23.14
2022-09-09T23:09:42.952Z,23.12
2022-09-09T23:11:46.995Z,23.12
2022-09-09T23:13:57.600Z,23.10
2022-09-09T23:16:04.156Z,23.11
2022-09-09T23:18:07.171Z,23.11
2022-09-09T23:20:10.618Z,23.11
2022-09-09T23:22:15.323Z,23.11
2022-09-09T23:24:18.171Z,23.12
2022-09-09T23:26:21.101Z,23.10
2022-09-09T23:28:23.181Z,23.07
2022-09-09T23:30:31.757Z,23.06
2022-09-09T23:32:34.336Z,23.06
2022-09-09T23:34:40.202Z,23.06
2022-09-09T23:36:42.441Z,23.08
2022-09-09T23:38:44.545Z,23.05
2022-09-09T23:40:47.270Z,23.07
2022-09-09T23:42:49.265Z,23.08
2022-09-09T23:44:52.339Z,23.08
2022-09-09T23:46:54.659Z,23.08
2022-09-09T23:48:58.217Z,23.09
2022-09-09T23:51:00.588Z,23.07
2022-09-09T23:53:03.402Z,23.03
2022-09-09T23:55:08.924Z,23.02
2022-09-09T23:57:13.778Z,22.96
2022-09-09T23:59:16.075Z,22.92
